createdAt,value
2019-04-19T00:01:20.542Z,7.10
2019-04-19T00:03:49.337Z,6.80
2019-04-19T00:06:36.515Z,7.03
2019-04-19T00:09:16.458Z,6.70
2019-04-19T00:11:40.265Z,7.00
2019-04-19T00:14:18.968Z,7.22
2019-04-19T00:16:55.530Z,7.10
2019-04-19T00:19:53.814Z,6.90
2019-04-19T00:22:42.717Z,6.70
2019-04-19T00:25:01.324Z,6.53
2019-04-19T00:27:44.178Z,7.10
2019-04-19T00:30:34.883Z,7.12
2019-04-19T00:33:08.486Z,6.90
2019-04-19T00:35:20.898Z,7.28
2019-04-19T00:37:53.236Z,6.60
2019-04-19T00:40:42.138Z,7.05
2019-04-19T00:43:26.306Z,7.10
2019-04-19T00:46:01.182Z,7.07
2019-04-19T00:48:32.951Z,7.10
2019-04-19T00:50:56.289Z,7.20
2019-04-19T00:53:24.102Z,7.08
2019-04-19T00:55:52.188Z,7.10
2019-04-19T00:58:18.491Z,6.97
2019-04-19T01:00:41.780Z,7.45
2019-04-19T01:03:13.444Z,6.90
2019-04-19T01:05:47.164Z,7.20
2019-04-19T01:08:13.968Z,7.10
2019-04-19T01:10:51.275Z,8.15
2019-04-19T01:13:18.987Z,7.40
2019-04-19T01:15:53.134Z,8.05
2019-04-19T01:18:23.368Z,7.80
2019-04-19T01:20:39.464Z,7.47
2019-04-19T01:23:13.087Z,7.85
2019-04-19T01:25:39.335Z,7.80
2019-04-19T01:28:13.910Z,8.05
2019-04-19T01:30:41.767Z,7.20
2019-04-19T01:33:07.445Z,7.53
2019-04-19T01:35:41.065Z,7.60
2019-04-19T01:38:08.407Z,7.97
2019-04-19T01:41:01.725Z,7.90
2019-04-19T01:43:28.986Z,8.00
2019-04-19T01:46:07.018Z,7.90
2019-04-19T01:48:46.882Z,8.37
2019-04-19T01:51:48.038Z,7.95
2019-04-19T01:54:36.990Z,8.25
2019-04-19T01:56:56.816Z,8.15
2019-04-19T01:59:24.765Z,7.95
2019-04-19T02:01:59.422Z,7.70
2019-04-19T02:04:26.160Z,7.60
2019-04-19T02:06:51.585Z,8.00
2019-04-19T02:09:31.367Z,7.62
2019-04-19T02:12:09.171Z,8.07
2019-04-19T02:14:35.517Z,7.70
2019-04-19T02:17:00.471Z,7.67
2019-04-19T02:19:26.526Z,7.85
2019-04-19T02:21:55.205Z,8.00
2019-04-19T02:24:29.735Z,7.60
2019-04-19T02:26:59.348Z,7.80
2019-04-19T02:29:27.078Z,7.60
2019-04-19T02:37:19.639Z,7.80
2019-04-19T02:39:56.188Z,7.50
2019-04-19T02:42:27.165Z,7.10
2019-04-19T02:45:00.690Z,7.37
2019-04-19T02:49:54.505Z,7.80
2019-04-19T02:57:42.396Z,8.00
2019-04-19T03:00:30.697Z,7.92
2019-04-19T03:05:22.776Z,7.70
2019-04-19T03:07:26.043Z,7.63
2019-04-19T03:09:54.158Z,8.30
2019-04-19T03:12:42.665Z,8.03
2019-04-19T03:15:07.080Z,7.72
2019-04-19T03:17:39.091Z,7.55
2019-04-19T03:20:09.288Z,7.83
2019-04-19T03:22:39.156Z,7.30
2019-04-19T03:25:12.257Z,7.33
2019-04-19T03:27:34.926Z,7.50
2019-04-19T03:30:07.361Z,7.20
2019-04-19T03:35:06.422Z,7.55
2019-04-19T03:37:38.055Z,7.47
2019-04-19T03:40:20.341Z,8.25
2019-04-19T03:43:10.634Z,7.37
2019-04-19T03:45:34.840Z,7.80
2019-04-19T03:48:08.875Z,8.35
2019-04-19T03:50:37.408Z,7.50
2019-04-19T03:53:09.171Z,7.60
2019-04-19T03:55:39.376Z,8.05
2019-04-19T03:57:58.296Z,8.10
2019-04-19T04:00:19.535Z,7.80
2019-04-19T04:02:49.577Z,7.60
2019-04-19T04:05:21.056Z,7.70
2019-04-19T04:08:02.735Z,8.00
2019-04-19T04:10:35.570Z,7.72
2019-04-19T04:13:30.356Z,7.55
2019-04-19T04:16:19.617Z,7.72
2019-04-19T04:18:38.735Z,7.60
2019-04-19T04:21:07.536Z,8.10
2019-04-19T04:23:42.153Z,7.67
2019-04-19T04:26:11.514Z,7.57
2019-04-19T04:28:51.257Z,8.05
2019-04-19T04:31:15.078Z,7.78
2019-04-19T04:33:46.074Z,7.90
2019-04-19T04:36:25.245Z,7.80
2019-04-19T04:38:40.741Z,7.80
2019-04-19T04:41:11.010Z,7.78
2019-04-19T04:43:44.626Z,7.83
2019-04-19T04:46:59.191Z,7.42
2019-04-19T04:49:45.989Z,7.70
2019-04-19T04:52:10.752Z,8.30
2019-04-19T04:54:31.346Z,7.72
2019-04-19T04:57:26.532Z,8.45
2019-04-19T04:59:50.765Z,7.80
2019-04-19T05:02:37.762Z,7.80
2019-04-19T05:05:05.636Z,7.80
2019-04-19T05:07:34.094Z,7.70
2019-04-19T05:10:07.308Z,7.87
2019-04-19T05:12:46.632Z,9.50
2019-04-19T05:14:58.920Z,8.53
2019-04-19T05:20:12.125Z,8.15
2019-04-19T05:22:31.696Z,8.10
2019-04-19T05:25:17.695Z,7.50
2019-04-19T05:27:38.994Z,7.70
2019-04-19T05:29:51.625Z,7.85
2019-04-19T05:32:24.207Z,8.70
2019-04-19T05:35:06.887Z,7.83
2019-04-19T05:37:40.898Z,7.93
2019-04-19T05:40:16.595Z,7.70
2019-04-19T05:43:11.841Z,7.95
2019-04-19T05:45:43.947Z,7.60
2019-04-19T05:48:01.498Z,7.70
2019-04-19T05:50:40.566Z,7.55
2019-04-19T05:53:05.193Z,7.62
2019-04-19T05:55:21.201Z,8.05
2019-04-19T05:58:05.839Z,7.45
2019-04-19T06:00:39.085Z,6.97
2019-04-19T06:03:06.578Z,7.22
2019-04-19T06:05:48.486Z,7.22
2019-04-19T06:08:05.093Z,7.53
2019-04-19T06:10:25.476Z,7.87
2019-04-19T06:13:00.394Z,7.80
2019-04-19T06:15:49.602Z,7.65
2019-04-19T06:18:31.586Z,7.80
2019-04-19T06:21:13.932Z,7.70
2019-04-19T06:23:38.232Z,7.50
2019-04-19T06:26:36.938Z,7.53
2019-04-19T06:28:44.195Z,7.40
2019-04-19T06:31:12.948Z,7.87
2019-04-19T06:33:38.717Z,7.30
2019-04-19T06:35:53.651Z,7.50
2019-04-19T06:38:18.423Z,7.30
2019-04-19T06:40:54.060Z,7.62
2019-04-19T06:43:30.599Z,8.80
2019-04-19T06:46:02.634Z,7.70
2019-04-19T06:48:21.987Z,7.20
2019-04-19T06:50:53.810Z,7.50
2019-04-19T06:53:16.967Z,8.33
2019-04-19T06:55:49.839Z,7.60
2019-04-19T06:58:23.778Z,7.70
2019-04-19T07:01:00.794Z,7.70
2019-04-19T07:03:17.687Z,7.70
2019-04-19T07:06:05.253Z,7.90
2019-04-19T07:09:00.779Z,7.60
2019-04-19T07:11:19.778Z,7.40
2019-04-19T07:13:30.712Z,7.67
2019-04-19T07:16:07.419Z,7.62
2019-04-19T07:18:30.310Z,8.43
2019-04-19T07:21:10.507Z,8.63
2019-04-19T07:23:33.143Z,8.40
2019-04-19T07:26:09.962Z,8.10
2019-04-19T07:28:23.010Z,7.93
2019-04-19T07:30:49.219Z,7.90
2019-04-19T07:33:23.453Z,7.80
2019-04-19T07:36:08.870Z,7.70
2019-04-19T07:38:33.199Z,7.85
2019-04-19T07:41:07.104Z,7.80
2019-04-19T07:43:48.307Z,7.80
2019-04-19T07:46:21.024Z,7.60
2019-04-19T07:48:55.461Z,8.00
2019-04-19T07:51:30.117Z,8.08
2019-04-19T07:53:54.890Z,7.92
2019-04-19T07:56:37.155Z,7.70
2019-04-19T07:59:19.747Z,8.28
2019-04-19T08:02:04.699Z,8.28
2019-04-19T08:04:38.565Z,8.88
2019-04-19T08:09:18.911Z,9.00
2019-04-19T08:11:58.861Z,8.70
2019-04-19T08:29:03.479Z,8.30
2019-04-19T08:31:23.197Z,7.90
2019-04-19T08:33:51.182Z,8.30
2019-04-19T08:36:25.564Z,8.23
2019-04-19T08:39:07.034Z,7.87
2019-04-19T08:41:31.624Z,7.90
2019-04-19T08:44:05.019Z,8.10
2019-04-19T08:46:36.705Z,8.18
2019-04-19T08:49:28.540Z,8.63
2019-04-19T08:51:55.955Z,8.20
2019-04-19T08:54:48.990Z,8.30
2019-04-19T08:57:02.932Z,7.85
2019-04-19T08:59:51.272Z,8.33
2019-04-19T09:02:16.771Z,8.05
2019-04-19T09:04:44.054Z,8.48
2019-04-19T09:09:50.754Z,7.42
2019-04-19T09:12:12.185Z,8.08
2019-04-19T09:14:49.972Z,8.08
2019-04-19T09:17:19.091Z,7.72
2019-04-19T09:20:00.905Z,7.67
2019-04-19T09:22:16.613Z,7.47
2019-04-19T09:24:38.484Z,7.78
2019-04-19T09:27:13.593Z,7.83
2019-04-19T09:29:45.024Z,7.50
2019-04-19T09:32:03.529Z,7.45
2019-04-19T09:34:26.999Z,7.30
2019-04-19T09:37:06.960Z,7.55
2019-04-19T09:39:41.455Z,7.87
2019-04-19T09:42:02.201Z,8.00
2019-04-19T09:44:34.710Z,8.20
2019-04-19T09:46:55.412Z,7.78
2019-04-19T09:49:43.074Z,7.80
2019-04-19T09:52:14.041Z,7.75
2019-04-19T09:54:46.943Z,7.40
2019-04-19T09:57:15.780Z,7.62
2019-04-19T09:59:31.035Z,7.30
2019-04-19T10:01:58.023Z,7.40
2019-04-19T10:04:25.122Z,6.90
2019-04-19T10:06:54.729Z,7.22
2019-04-19T10:09:24.140Z,7.45
2019-04-19T10:11:52.971Z,7.30
2019-04-19T10:14:21.679Z,7.30
2019-04-19T10:16:56.458Z,7.33
2019-04-19T10:19:24.959Z,7.05
2019-04-19T10:22:02.613Z,7.30
2019-04-19T10:24:31.455Z,7.00
2019-04-19T10:27:05.625Z,7.80
2019-04-19T10:29:38.491Z,7.25
2019-04-19T10:32:10.627Z,7.40
2019-04-19T10:34:38.703Z,7.20
2019-04-19T10:37:07.888Z,6.72
2019-04-19T10:39:37.246Z,7.40
2019-04-19T10:42:06.260Z,7.17
2019-04-19T10:44:34.317Z,7.08
2019-04-19T10:47:02.939Z,7.22
2019-04-19T10:49:38.948Z,7.10
2019-04-19T10:52:04.979Z,7.30
2019-04-19T10:54:32.974Z,7.20
2019-04-19T10:57:06.680Z,7.67
2019-04-19T10:59:36.499Z,7.10
2019-04-19T11:02:04.612Z,6.90
2019-04-19T11:04:33.075Z,7.00
2019-04-19T11:07:01.697Z,7.30
2019-04-19T11:09:29.752Z,7.50
2019-04-19T11:11:59.647Z,7.53
2019-04-19T11:14:28.247Z,7.35
2019-04-19T11:16:57.622Z,7.58
2019-04-19T11:19:44.573Z,7.50
2019-04-19T11:21:56.398Z,7.55
2019-04-19T11:24:25.605Z,7.35
2019-04-19T11:26:54.984Z,7.30
2019-04-19T11:29:23.965Z,7.25
2019-04-19T11:32:17.903Z,8.00
2019-04-19T11:34:49.864Z,7.00
2019-04-19T11:37:18.460Z,7.22
2019-04-19T11:39:47.116Z,7.10
2019-04-19T11:42:15.248Z,6.83
2019-04-19T11:44:43.846Z,6.90
2019-04-19T11:47:13.171Z,6.87
2019-04-19T11:49:44.354Z,6.90
2019-04-19T11:52:17.975Z,6.90
2019-04-19T11:54:46.853Z,6.50
2019-04-19T11:57:26.110Z,6.20
2019-04-19T12:00:12.099Z,6.97
2019-04-19T12:02:42.137Z,7.80
2019-04-19T12:05:16.448Z,7.00
2019-04-19T12:07:40.287Z,7.08
2019-04-19T12:10:08.606Z,6.93
2019-04-19T12:12:37.287Z,6.37
2019-04-19T12:15:08.241Z,6.72
2019-04-19T12:17:37.763Z,7.17
2019-04-19T12:20:09.547Z,6.87
2019-04-19T12:22:38.007Z,7.20
2019-04-19T12:25:07.935Z,6.85
2019-04-19T12:27:35.979Z,7.10
2019-04-19T12:30:05.459Z,6.63
2019-04-19T12:32:39.424Z,6.12
2019-04-19T12:35:08.836Z,6.35
2019-04-19T12:37:37.422Z,6.55
2019-04-19T12:40:06.723Z,6.20
2019-04-19T12:42:35.938Z,6.75
2019-04-19T12:45:06.020Z,6.90
2019-04-19T12:47:35.200Z,7.00
2019-04-19T12:50:08.631Z,6.62
2019-04-19T12:52:33.651Z,6.50
2019-04-19T12:55:01.999Z,5.87
2019-04-19T12:57:34.053Z,5.90
2019-04-19T13:00:02.773Z,5.80
2019-04-19T13:02:42.001Z,5.80
2019-04-19T13:05:14.416Z,6.10
2019-04-19T13:07:43.092Z,5.90
2019-04-19T13:10:11.384Z,6.15
2019-04-19T13:12:39.327Z,6.50
2019-04-19T13:15:09.475Z,5.80
2019-04-19T13:17:38.175Z,6.20
2019-04-19T13:20:12.764Z,6.10
2019-04-19T13:22:36.523Z,7.25
2019-04-19T13:25:05.598Z,6.00
2019-04-19T13:27:40.332Z,6.05
2019-04-19T13:30:12.055Z,6.25
2019-04-19T13:32:33.610Z,6.08
2019-04-19T13:35:03.582Z,6.08
2019-04-19T13:37:45.258Z,7.37
2019-04-19T13:40:30.259Z,6.17
2019-04-19T13:43:01.402Z,6.15
2019-04-19T13:45:31.933Z,5.80
2019-04-19T13:47:58.708Z,5.67
2019-04-19T13:50:33.079Z,6.60
2019-04-19T13:52:57.485Z,6.53
2019-04-19T13:55:26.580Z,6.30
2019-04-19T13:57:55.600Z,6.42
2019-04-19T14:00:40.450Z,6.10
2019-04-19T14:03:09.670Z,6.00
2019-04-19T14:05:38.613Z,6.70
2019-04-19T14:08:06.911Z,6.85
2019-04-19T14:10:35.158Z,5.78
2019-04-19T14:13:05.089Z,6.60
2019-04-19T14:15:35.020Z,5.42
2019-04-19T14:18:04.747Z,5.90
2019-04-19T14:20:40.339Z,5.83
2019-04-19T14:23:03.950Z,5.23
2019-04-19T14:25:32.058Z,5.70
2019-04-19T14:28:00.355Z,5.70
2019-04-19T14:30:29.670Z,6.30
2019-04-19T14:32:58.577Z,5.90
2019-04-19T14:35:27.940Z,5.90
2019-04-19T14:37:56.908Z,5.20
2019-04-19T14:40:25.809Z,5.67
2019-04-19T14:42:54.182Z,5.25
2019-04-19T14:45:24.224Z,4.97
2019-04-19T14:47:52.968Z,5.50
2019-04-19T14:50:21.141Z,5.90
2019-04-19T14:52:49.386Z,5.78
2019-04-19T14:55:18.109Z,5.50
2019-04-19T14:57:46.588Z,6.05
2019-04-19T15:00:17.126Z,5.42
2019-04-19T15:03:05.003Z,5.60
2019-04-19T15:05:35.440Z,5.20
2019-04-19T15:08:04.478Z,5.60
2019-04-19T15:10:33.496Z,5.58
2019-04-19T15:13:02.860Z,5.83
2019-04-19T15:15:31.585Z,5.70
2019-04-19T15:17:59.965Z,5.00
2019-04-19T15:20:28.317Z,4.80
2019-04-19T15:22:56.295Z,5.40
2019-04-19T15:25:25.681Z,5.00
2019-04-19T15:27:54.952Z,4.72
2019-04-19T15:30:23.735Z,5.20
2019-04-19T15:32:52.317Z,4.80
2019-04-19T15:35:21.426Z,4.80
2019-04-19T15:37:49.818Z,4.90
2019-04-19T15:40:20.268Z,5.60
2019-04-19T15:42:50.555Z,4.90
2019-04-19T15:45:20.958Z,4.67
2019-04-19T15:47:48.883Z,4.90
2019-04-19T15:50:17.982Z,4.40
2019-04-19T15:52:46.693Z,4.22
2019-04-19T15:55:15.194Z,4.33
2019-04-19T15:57:43.904Z,4.60
2019-04-19T16:00:16.019Z,4.07
2019-04-19T16:02:49.620Z,4.00
2019-04-19T16:05:38.037Z,3.90
2019-04-19T16:08:29.092Z,4.10
2019-04-19T16:11:16.485Z,3.90
2019-04-19T16:13:45.975Z,4.20
2019-04-19T16:16:14.408Z,4.28
2019-04-19T16:18:42.777Z,4.50
2019-04-19T16:21:23.939Z,4.25
2019-04-19T16:23:41.030Z,8.93
2019-04-19T16:26:09.233Z,5.20
2019-04-19T16:28:37.460Z,4.00
2019-04-19T16:31:06.438Z,3.80
2019-04-19T16:33:36.038Z,4.70
2019-04-19T16:36:04.862Z,4.10
2019-04-19T16:38:32.921Z,4.10
2019-04-19T16:41:01.412Z,4.40
2019-04-19T16:43:29.739Z,4.40
2019-04-19T16:46:08.022Z,4.00
2019-04-19T16:48:28.429Z,4.00
2019-04-19T16:50:56.740Z,4.30
2019-04-19T16:53:26.067Z,4.43
2019-04-19T16:55:54.629Z,4.22
2019-04-19T16:58:24.337Z,4.10
2019-04-19T17:00:52.623Z,4.20
2019-04-19T17:03:21.593Z,5.05
2019-04-19T17:05:50.750Z,4.95
2019-04-19T17:08:19.960Z,8.65
2019-04-19T17:10:49.085Z,4.90
2019-04-19T17:13:17.658Z,5.10
2019-04-19T17:16:03.035Z,5.10
2019-04-19T17:18:41.303Z,4.20
2019-04-19T17:21:11.185Z,3.83
2019-04-19T17:23:40.475Z,3.50
2019-04-19T17:26:08.914Z,3.90
2019-04-19T17:28:36.955Z,3.87
2019-04-19T17:31:06.316Z,3.50
2019-04-19T17:33:34.382Z,3.58
2019-04-19T17:36:03.997Z,3.77
2019-04-19T17:39:47.088Z,3.90
2019-04-19T17:41:02.861Z,3.92
2019-04-19T17:43:31.811Z,3.52
2019-04-19T17:46:00.266Z,3.62
2019-04-19T17:48:28.485Z,3.62
2019-04-19T17:50:57.698Z,4.40
2019-04-19T17:53:32.674Z,3.50
2019-04-19T17:55:58.086Z,3.40
2019-04-19T17:58:26.021Z,3.70
2019-04-19T18:00:54.544Z,4.03
2019-04-19T18:03:22.808Z,3.90
2019-04-19T18:05:51.908Z,4.08
2019-04-19T18:08:26.196Z,5.10
2019-04-19T18:10:53.989Z,5.10
2019-04-19T18:13:21.204Z,4.67
2019-04-19T18:15:50.910Z,4.10
2019-04-19T18:18:20.852Z,4.60
2019-04-19T18:20:55.707Z,4.70
2019-04-19T18:23:32.585Z,4.30
2019-04-19T18:25:52.861Z,4.60
2019-04-19T18:28:25.277Z,4.70
2019-04-19T18:30:53.529Z,4.00
2019-04-19T18:33:49.312Z,4.80
2019-04-19T18:36:21.634Z,6.72
2019-04-19T18:38:46.250Z,4.40
2019-04-19T18:41:15.523Z,5.33
2019-04-19T18:43:57.383Z,5.70
2019-04-19T18:46:15.001Z,5.50
2019-04-19T18:48:43.145Z,4.67
2019-04-19T18:51:13.313Z,5.20
2019-04-19T18:53:54.559Z,4.00
2019-04-19T18:56:17.933Z,3.80
2019-04-19T18:58:42.805Z,3.62
2019-04-19T19:01:22.879Z,3.87
2019-04-19T19:03:45.210Z,4.20
2019-04-19T19:06:12.844Z,4.07
2019-04-19T19:08:50.353Z,3.62
2019-04-19T19:11:16.338Z,3.77
2019-04-19T19:13:42.781Z,3.58
2019-04-19T19:16:18.608Z,3.80
2019-04-19T19:18:48.087Z,4.12
2019-04-19T19:21:14.539Z,3.90
2019-04-19T19:23:57.526Z,5.80
2019-04-19T19:26:21.348Z,5.03
2019-04-19T19:28:40.613Z,4.40
2019-04-19T19:31:09.197Z,5.17
2019-04-19T19:33:44.596Z,5.58
2019-04-19T19:36:08.959Z,5.30
2019-04-19T19:38:40.175Z,5.03
2019-04-19T19:41:26.866Z,6.35
2019-04-19T19:43:50.923Z,6.10
2019-04-19T19:46:42.968Z,8.80
2019-04-19T19:51:23.759Z,4.10
2019-04-19T19:54:02.653Z,6.40
2019-04-19T19:56:43.110Z,5.50
2019-04-19T19:58:44.853Z,5.40
2019-04-19T20:01:20.865Z,5.90
2019-04-19T20:03:43.445Z,4.10
2019-04-19T20:06:12.582Z,3.60
2019-04-19T20:08:41.139Z,3.67
2019-04-19T20:11:12.022Z,3.60
2019-04-19T20:13:42.580Z,3.58
2019-04-19T20:16:14.770Z,3.58
2019-04-19T20:18:39.458Z,3.50
2019-04-19T20:21:11.808Z,3.30
2019-04-19T20:23:54.043Z,4.10
2019-04-19T20:26:16.382Z,4.77
2019-04-19T20:28:37.841Z,3.90
2019-04-19T20:31:07.142Z,4.30
2019-04-19T20:33:45.929Z,3.67
2019-04-19T20:36:08.793Z,3.80
2019-04-19T20:38:40.353Z,3.80
2019-04-19T20:41:09.853Z,3.40
2019-04-19T20:43:53.856Z,3.72
2019-04-19T20:46:11.787Z,3.60
2019-04-19T20:48:35.522Z,3.67
2019-04-19T20:51:11.690Z,3.60
2019-04-19T20:53:42.696Z,3.70
2019-04-19T20:56:46.869Z,3.50
2019-04-19T20:58:55.748Z,3.87
2019-04-19T21:01:21.190Z,3.70
2019-04-19T21:03:49.765Z,3.85
2019-04-19T21:06:24.247Z,4.20
2019-04-19T21:08:50.047Z,4.30
2019-04-19T21:11:19.384Z,3.80
2019-04-19T21:13:52.343Z,3.80
2019-04-19T21:16:18.506Z,4.30
2019-04-19T21:18:49.419Z,4.40
2019-04-19T21:21:18.188Z,4.40
2019-04-19T21:23:57.160Z,4.60
2019-04-19T21:26:23.098Z,4.40
2019-04-19T21:28:49.845Z,3.87
2019-04-19T21:31:17.675Z,4.12
2019-04-19T21:33:51.260Z,4.28
2019-04-19T21:36:17.894Z,4.67
2019-04-19T21:38:52.136Z,4.53
2019-04-19T21:41:21.848Z,4.33
2019-04-19T21:43:46.208Z,4.30
2019-04-19T21:46:19.188Z,4.20
2019-04-19T21:48:44.487Z,4.20
2019-04-19T21:51:20.212Z,4.40
2019-04-19T21:53:47.415Z,4.03
2019-04-19T21:56:16.212Z,4.30
2019-04-19T21:58:50.055Z,4.10
2019-04-19T22:01:15.463Z,4.20
2019-04-19T22:03:41.301Z,4.30
2019-04-19T22:06:17.496Z,4.45
2019-04-19T22:08:41.707Z,4.58
2019-04-19T22:11:10.327Z,4.50
2019-04-19T22:13:43.459Z,4.35
2019-04-19T22:16:10.605Z,4.50
2019-04-19T22:18:44.189Z,4.60
2019-04-19T22:21:10.563Z,6.22
2019-04-19T22:23:43.600Z,4.80
2019-04-19T22:26:21.158Z,5.10
2019-04-19T22:28:41.603Z,4.90
2019-04-19T22:31:11.272Z,4.75
2019-04-19T22:33:40.670Z,4.80
2019-04-19T22:36:10.512Z,4.90
2019-04-19T22:38:42.392Z,5.12
2019-04-19T22:41:13.759Z,4.72
2019-04-19T22:43:40.591Z,5.00
2019-04-19T22:46:12.003Z,5.10
2019-04-19T22:48:39.798Z,5.03
2019-04-19T22:51:12.479Z,4.90
2019-04-19T22:53:41.283Z,5.00
2019-04-19T22:56:21.674Z,5.05
2019-04-19T22:58:40.210Z,4.83
2019-04-19T23:01:20.391Z,5.03
2019-04-19T23:03:46.670Z,4.92
2019-04-19T23:06:20.717Z,5.37
2019-04-19T23:08:44.993Z,4.97
2019-04-19T23:11:15.260Z,5.10
2019-04-19T23:13:45.304Z,5.33
2019-04-19T23:16:15.294Z,5.15
2019-04-19T23:18:47.015Z,5.10
2019-04-19T23:21:18.532Z,4.87
2019-04-19T23:23:45.023Z,5.10
2019-04-19T23:26:27.030Z,4.80
2019-04-19T23:28:46.148Z,5.20
2019-04-19T23:31:17.274Z,5.10
2019-04-19T23:33:50.165Z,4.97
2019-04-19T23:36:20.656Z,5.30
2019-04-19T23:38:45.410Z,5.40
2019-04-19T23:41:13.616Z,5.15
2019-04-19T23:43:43.957Z,5.47
2019-04-19T23:46:20.830Z,5.35
2019-04-19T23:48:42.656Z,5.25
2019-04-19T23:51:14.678Z,5.40
2019-04-19T23:53:44.806Z,5.30
2019-04-19T23:56:22.367Z,5.10
2019-04-19T23:58:44.325Z,5.10
